sensor_id;sensor_type;location;lat;lon;timestamp;P1;durP1;ratioP1;P2;durP2;ratioP2
20008;SDS011;10165;42.662;23.260;2022-07-12T00:01:33;1.50;;;1.40;;
20008;SDS011;10165;42.662;23.260;2022-07-12T00:04:00;2.50;;;1.23;;
20008;SDS011;10165;42.662;23.260;2022-07-12T00:06:27;1.30;;;1.20;;
20008;SDS011;10165;42.662;23.260;2022-07-12T00:08:54;1.63;;;1.53;;
20008;SDS011;10165;42.662;23.260;2022-07-12T00:11:20;1.43;;;1.30;;
20008;SDS011;10165;42.662;23.260;2022-07-12T00:13:47;2.03;;;1.30;;
20008;SDS011;10165;42.662;23.260;2022-07-12T00:16:14;1.43;;;1.23;;
20008;SDS011;10165;42.662;23.260;2022-07-12T00:18:41;1.03;;;1.03;;
20008;SDS011;10165;42.662;23.260;2022-07-12T00:21:08;1.80;;;1.37;;
20008;SDS011;10165;42.662;23.260;2022-07-12T00:23:34;1.50;;;1.30;;
20008;SDS011;10165;42.662;23.260;2022-07-12T00:26:01;1.60;;;1.20;;
20008;SDS011;10165;42.662;23.260;2022-07-12T00:28:31;2.30;;;1.60;;
20008;SDS011;10165;42.662;23.260;2022-07-12T00:30:58;1.40;;;1.30;;
20008;SDS011;10165;42.662;23.260;2022-07-12T00:33:26;1.10;;;1.10;;
20008;SDS011;10165;42.662;23.260;2022-07-12T00:35:52;1.40;;;1.30;;
20008;SDS011;10165;42.662;23.260;2022-07-12T00:38:19;1.20;;;1.00;;
20008;SDS011;10165;42.662;23.260;2022-07-12T00:40:46;2.10;;;1.30;;
20008;SDS011;10165;42.662;23.260;2022-07-12T00:43:13;1.63;;;1.30;;
20008;SDS011;10165;42.662;23.260;2022-07-12T00:45:40;3.70;;;1.40;;
20008;SDS011;10165;42.662;23.260;2022-07-12T00:48:07;1.10;;;1.03;;
20008;SDS011;10165;42.662;23.260;2022-07-12T00:50:34;2.30;;;1.63;;
20008;SDS011;10165;42.662;23.260;2022-07-12T00:53:02;2.57;;;1.23;;
20008;SDS011;10165;42.662;23.260;2022-07-12T00:55:29;1.47;;;1.37;;
20008;SDS011;10165;42.662;23.260;2022-07-12T00:57:56;1.80;;;1.17;;
20008;SDS011;10165;42.662;23.260;2022-07-12T01:00:23;1.70;;;1.00;;
20008;SDS011;10165;42.662;23.260;2022-07-12T01:02:53;3.03;;;1.30;;
20008;SDS011;10165;42.662;23.260;2022-07-12T01:05:21;3.53;;;1.50;;
20008;SDS011;10165;42.662;23.260;2022-07-12T01:07:49;1.70;;;1.47;;
20008;SDS011;10165;42.662;23.260;2022-07-12T01:10:16;1.57;;;1.30;;
20008;SDS011;10165;42.662;23.260;2022-07-12T01:12:43;1.23;;;1.00;;
20008;SDS011;10165;42.662;23.260;2022-07-12T01:15:11;2.20;;;1.20;;
20008;SDS011;10165;42.662;23.260;2022-07-12T01:17:38;1.63;;;1.53;;
20008;SDS011;10165;42.662;23.260;2022-07-12T01:20:06;1.50;;;1.17;;
20008;SDS011;10165;42.662;23.260;2022-07-12T01:22:35;2.23;;;1.37;;
20008;SDS011;10165;42.662;23.260;2022-07-12T01:25:04;1.50;;;1.40;;
20008;SDS011;10165;42.662;23.260;2022-07-12T01:27:32;4.07;;;1.20;;
20008;SDS011;10165;42.662;23.260;2022-07-12T01:30:01;2.17;;;1.50;;
20008;SDS011;10165;42.662;23.260;2022-07-12T01:32:30;1.20;;;1.10;;
20008;SDS011;10165;42.662;23.260;2022-07-12T01:34:59;2.80;;;1.17;;
20008;SDS011;10165;42.662;23.260;2022-07-12T01:37:31;1.10;;;1.10;;
20008;SDS011;10165;42.662;23.260;2022-07-12T01:40:01;1.80;;;1.13;;
20008;SDS011;10165;42.662;23.260;2022-07-12T01:42:30;1.53;;;1.43;;
20008;SDS011;10165;42.662;23.260;2022-07-12T01:44:57;1.70;;;1.33;;
20008;SDS011;10165;42.662;23.260;2022-07-12T01:47:26;1.30;;;1.17;;
20008;SDS011;10165;42.662;23.260;2022-07-12T01:49:55;3.17;;;1.60;;
20008;SDS011;10165;42.662;23.260;2022-07-12T01:52:21;6.30;;;1.83;;
20008;SDS011;10165;42.662;23.260;2022-07-12T01:54:49;3.30;;;1.20;;
20008;SDS011;10165;42.662;23.260;2022-07-12T01:57:16;2.37;;;1.43;;
20008;SDS011;10165;42.662;23.260;2022-07-12T01:59:43;1.80;;;1.40;;
20008;SDS011;10165;42.662;23.260;2022-07-12T02:02:10;1.63;;;1.17;;
20008;SDS011;10165;42.662;23.260;2022-07-12T02:04:37;2.90;;;1.80;;
20008;SDS011;10165;42.662;23.260;2022-07-12T02:07:04;2.70;;;1.30;;
20008;SDS011;10165;42.662;23.260;2022-07-12T02:09:31;2.03;;;1.63;;
20008;SDS011;10165;42.662;23.260;2022-07-12T02:11:58;2.07;;;1.43;;
20008;SDS011;10165;42.662;23.260;2022-07-12T02:14:27;3.13;;;1.30;;
20008;SDS011;10165;42.662;23.260;2022-07-12T02:16:54;3.90;;;1.50;;
20008;SDS011;10165;42.662;23.260;2022-07-12T02:19:20;1.40;;;1.30;;
20008;SDS011;10165;42.662;23.260;2022-07-12T02:21:47;2.73;;;1.47;;
20008;SDS011;10165;42.662;23.260;2022-07-12T02:24:14;3.33;;;1.30;;
20008;SDS011;10165;42.662;23.260;2022-07-12T02:26:40;2.97;;;1.30;;
20008;SDS011;10165;42.662;23.260;2022-07-12T02:29:07;1.43;;;1.30;;
20008;SDS011;10165;42.662;23.260;2022-07-12T02:31:34;1.90;;;1.40;;
20008;SDS011;10165;42.662;23.260;2022-07-12T02:34:01;1.30;;;1.20;;
20008;SDS011;10165;42.662;23.260;2022-07-12T02:36:27;1.70;;;1.43;;
20008;SDS011;10165;42.662;23.260;2022-07-12T02:38:54;3.00;;;1.50;;
20008;SDS011;10165;42.662;23.260;2022-07-12T02:41:21;2.73;;;1.40;;
20008;SDS011;10165;42.662;23.260;2022-07-12T02:43:48;1.73;;;1.50;;
20008;SDS011;10165;42.662;23.260;2022-07-12T02:46:14;2.37;;;1.43;;
20008;SDS011;10165;42.662;23.260;2022-07-12T02:48:42;6.10;;;1.90;;
20008;SDS011;10165;42.662;23.260;2022-07-12T02:51:09;2.60;;;1.63;;
20008;SDS011;10165;42.662;23.260;2022-07-12T02:53:36;2.37;;;1.50;;
20008;SDS011;10165;42.662;23.260;2022-07-12T02:56:07;1.53;;;1.43;;
20008;SDS011;10165;42.662;23.260;2022-07-12T02:58:35;1.80;;;1.20;;
20008;SDS011;10165;42.662;23.260;2022-07-12T03:01:02;2.03;;;1.50;;
20008;SDS011;10165;42.662;23.260;2022-07-12T03:03:30;1.30;;;1.20;;
20008;SDS011;10165;42.662;23.260;2022-07-12T03:05:57;3.30;;;1.60;;
20008;SDS011;10165;42.662;23.260;2022-07-12T03:08:24;1.50;;;1.40;;
20008;SDS011;10165;42.662;23.260;2022-07-12T03:10:51;2.77;;;1.40;;
20008;SDS011;10165;42.662;23.260;2022-07-12T03:13:18;1.50;;;1.40;;
20008;SDS011;10165;42.662;23.260;2022-07-12T03:15:45;1.83;;;1.27;;
20008;SDS011;10165;42.662;23.260;2022-07-12T03:18:16;1.57;;;1.30;;
20008;SDS011;10165;42.662;23.260;2022-07-12T03:20:46;4.40;;;1.60;;
20008;SDS011;10165;42.662;23.260;2022-07-12T03:23:15;2.87;;;1.70;;
20008;SDS011;10165;42.662;23.260;2022-07-12T03:25:42;2.03;;;1.40;;
20008;SDS011;10165;42.662;23.260;2022-07-12T03:28:09;2.00;;;1.40;;
20008;SDS011;10165;42.662;23.260;2022-07-12T03:30:36;2.63;;;1.17;;
20008;SDS011;10165;42.662;23.260;2022-07-12T03:33:03;5.83;;;1.60;;
20008;SDS011;10165;42.662;23.260;2022-07-12T03:35:30;2.53;;;1.57;;
20008;SDS011;10165;42.662;23.260;2022-07-12T03:37:56;2.43;;;1.40;;
20008;SDS011;10165;42.662;23.260;2022-07-12T03:40:23;4.13;;;1.60;;
20008;SDS011;10165;42.662;23.260;2022-07-12T03:42:51;4.00;;;1.60;;
20008;SDS011;10165;42.662;23.260;2022-07-12T03:45:19;1.47;;;1.33;;
20008;SDS011;10165;42.662;23.260;2022-07-12T03:47:45;2.40;;;1.40;;
20008;SDS011;10165;42.662;23.260;2022-07-12T03:50:14;1.70;;;1.50;;
20008;SDS011;10165;42.662;23.260;2022-07-12T03:52:41;2.40;;;1.63;;
20008;SDS011;10165;42.662;23.260;2022-07-12T03:55:10;1.63;;;1.47;;
20008;SDS011;10165;42.662;23.260;2022-07-12T03:57:38;3.13;;;1.63;;
20008;SDS011;10165;42.662;23.260;2022-07-12T04:00:06;1.77;;;1.67;;
20008;SDS011;10165;42.662;23.260;2022-07-12T04:02:39;1.57;;;1.43;;
20008;SDS011;10165;42.662;23.260;2022-07-12T04:05:07;2.73;;;1.70;;
20008;SDS011;10165;42.662;23.260;2022-07-12T04:07:35;2.00;;;1.73;;
20008;SDS011;10165;42.662;23.260;2022-07-12T04:10:03;2.90;;;1.60;;
20008;SDS011;10165;42.662;23.260;2022-07-12T04:12:31;2.33;;;1.80;;
20008;SDS011;10165;42.662;23.260;2022-07-12T04:14:57;4.93;;;1.87;;
20008;SDS011;10165;42.662;23.260;2022-07-12T04:17:24;3.23;;;2.00;;
20008;SDS011;10165;42.662;23.260;2022-07-12T04:19:51;1.90;;;1.80;;
20008;SDS011;10165;42.662;23.260;2022-07-12T04:22:18;2.80;;;2.07;;
20008;SDS011;10165;42.662;23.260;2022-07-12T04:24:45;6.00;;;2.80;;
20008;SDS011;10165;42.662;23.260;2022-07-12T04:27:11;4.57;;;2.93;;
20008;SDS011;10165;42.662;23.260;2022-07-12T04:29:38;6.63;;;2.57;;
20008;SDS011;10165;42.662;23.260;2022-07-12T04:32:05;3.80;;;2.60;;
20008;SDS011;10165;42.662;23.260;2022-07-12T04:34:32;2.17;;;1.97;;
20008;SDS011;10165;42.662;23.260;2022-07-12T04:36:59;3.87;;;2.10;;
20008;SDS011;10165;42.662;23.260;2022-07-12T04:39:26;3.57;;;2.40;;
20008;SDS011;10165;42.662;23.260;2022-07-12T04:41:52;3.40;;;2.40;;
20008;SDS011;10165;42.662;23.260;2022-07-12T04:44:19;5.57;;;2.70;;
20008;SDS011;10165;42.662;23.260;2022-07-12T04:46:46;8.00;;;2.60;;
20008;SDS011;10165;42.662;23.260;2022-07-12T04:49:13;3.00;;;2.70;;
20008;SDS011;10165;42.662;23.260;2022-07-12T04:51:40;7.10;;;3.27;;
20008;SDS011;10165;42.662;23.260;2022-07-12T04:54:06;2.67;;;2.40;;
20008;SDS011;10165;42.662;23.260;2022-07-12T04:56:34;2.90;;;2.23;;
20008;SDS011;10165;42.662;23.260;2022-07-12T04:59:00;5.17;;;3.17;;
20008;SDS011;10165;42.662;23.260;2022-07-12T05:01:30;12.50;;;3.50;;
20008;SDS011;10165;42.662;23.260;2022-07-12T05:03:58;5.87;;;2.50;;
20008;SDS011;10165;42.662;23.260;2022-07-12T05:06:26;2.63;;;2.20;;
20008;SDS011;10165;42.662;23.260;2022-07-12T05:08:53;6.40;;;2.50;;
20008;SDS011;10165;42.662;23.260;2022-07-12T05:11:19;3.17;;;2.70;;
20008;SDS011;10165;42.662;23.260;2022-07-12T05:13:46;3.83;;;2.80;;
20008;SDS011;10165;42.662;23.260;2022-07-12T05:16:13;6.83;;;3.10;;
20008;SDS011;10165;42.662;23.260;2022-07-12T05:18:40;5.30;;;2.80;;
20008;SDS011;10165;42.662;23.260;2022-07-12T05:21:07;5.73;;;3.20;;
20008;SDS011;10165;42.662;23.260;2022-07-12T05:23:34;7.77;;;3.50;;
20008;SDS011;10165;42.662;23.260;2022-07-12T05:26:01;5.67;;;2.90;;
20008;SDS011;10165;42.662;23.260;2022-07-12T05:28:31;13.83;;;3.20;;
20008;SDS011;10165;42.662;23.260;2022-07-12T05:30:58;4.87;;;2.00;;
20008;SDS011;10165;42.662;23.260;2022-07-12T05:33:25;10.03;;;1.80;;
20008;SDS011;10165;42.662;23.260;2022-07-12T05:35:52;1.93;;;1.47;;
20008;SDS011;10165;42.662;23.260;2022-07-12T05:38:19;3.83;;;1.43;;
20008;SDS011;10165;42.662;23.260;2022-07-12T05:40:45;4.73;;;1.90;;
20008;SDS011;10165;42.662;23.260;2022-07-12T05:43:12;6.37;;;1.70;;
20008;SDS011;10165;42.662;23.260;2022-07-12T05:45:40;2.83;;;1.80;;
20008;SDS011;10165;42.662;23.260;2022-07-12T05:48:07;1.50;;;1.40;;
20008;SDS011;10165;42.662;23.260;2022-07-12T05:50:34;7.43;;;1.57;;
20008;SDS011;10165;42.662;23.260;2022-07-12T05:53:01;2.13;;;1.47;;
20008;SDS011;10165;42.662;23.260;2022-07-12T05:55:46;5.97;;;1.30;;
20008;SDS011;10165;42.662;23.260;2022-07-12T05:58:13;3.57;;;1.70;;
20008;SDS011;10165;42.662;23.260;2022-07-12T06:00:39;6.27;;;1.70;;
20008;SDS011;10165;42.662;23.260;2022-07-12T06:03:06;2.67;;;1.57;;
20008;SDS011;10165;42.662;23.260;2022-07-12T06:05:33;4.10;;;1.40;;
20008;SDS011;10165;42.662;23.260;2022-07-12T06:07:59;3.03;;;1.30;;
20008;SDS011;10165;42.662;23.260;2022-07-12T06:10:26;1.40;;;1.30;;
20008;SDS011;10165;42.662;23.260;2022-07-12T06:12:53;2.50;;;1.60;;
20008;SDS011;10165;42.662;23.260;2022-07-12T06:15:21;1.83;;;1.33;;
20008;SDS011;10165;42.662;23.260;2022-07-12T06:17:47;1.97;;;1.40;;
20008;SDS011;10165;42.662;23.260;2022-07-12T06:20:15;3.50;;;1.50;;
20008;SDS011;10165;42.662;23.260;2022-07-12T06:22:41;6.17;;;1.63;;
20008;SDS011;10165;42.662;23.260;2022-07-12T06:25:09;3.40;;;1.20;;
20008;SDS011;10165;42.662;23.260;2022-07-12T06:27:59;1.53;;;1.37;;
20008;SDS011;10165;42.662;23.260;2022-07-12T06:30:26;1.93;;;1.43;;
20008;SDS011;10165;42.662;23.260;2022-07-12T06:32:53;1.20;;;1.10;;
20008;SDS011;10165;42.662;23.260;2022-07-12T06:35:21;2.23;;;1.67;;
20008;SDS011;10165;42.662;23.260;2022-07-12T06:37:48;4.40;;;1.30;;
20008;SDS011;10165;42.662;23.260;2022-07-12T06:40:14;2.03;;;1.23;;
20008;SDS011;10165;42.662;23.260;2022-07-12T06:42:43;3.20;;;1.23;;
20008;SDS011;10165;42.662;23.260;2022-07-12T06:45:10;13.50;;;1.60;;
20008;SDS011;10165;42.662;23.260;2022-07-12T06:47:37;3.93;;;1.57;;
20008;SDS011;10165;42.662;23.260;2022-07-12T06:50:04;1.20;;;1.10;;
20008;SDS011;10165;42.662;23.260;2022-07-12T06:52:31;2.97;;;1.70;;
20008;SDS011;10165;42.662;23.260;2022-07-12T06:54:58;3.10;;;1.60;;
20008;SDS011;10165;42.662;23.260;2022-07-12T06:57:25;3.67;;;1.37;;
20008;SDS011;10165;42.662;23.260;2022-07-12T06:59:56;1.50;;;1.40;;
20008;SDS011;10165;42.662;23.260;2022-07-12T07:02:23;2.13;;;1.40;;
20008;SDS011;10165;42.662;23.260;2022-07-12T07:04:50;2.20;;;1.50;;
20008;SDS011;10165;42.662;23.260;2022-07-12T07:07:17;2.90;;;1.47;;
20008;SDS011;10165;42.662;23.260;2022-07-12T07:09:44;3.37;;;1.40;;
20008;SDS011;10165;42.662;23.260;2022-07-12T07:12:10;5.13;;;1.83;;
20008;SDS011;10165;42.662;23.260;2022-07-12T07:14:37;2.80;;;1.73;;
20008;SDS011;10165;42.662;23.260;2022-07-12T07:17:04;2.67;;;1.50;;
20008;SDS011;10165;42.662;23.260;2022-07-12T07:19:31;3.93;;;1.80;;
20008;SDS011;10165;42.662;23.260;2022-07-12T07:21:58;3.40;;;1.30;;
20008;SDS011;10165;42.662;23.260;2022-07-12T07:24:25;2.70;;;1.33;;
20008;SDS011;10165;42.662;23.260;2022-07-12T07:26:52;4.63;;;1.40;;
20008;SDS011;10165;42.662;23.260;2022-07-12T07:29:23;1.80;;;1.17;;
20008;SDS011;10165;42.662;23.260;2022-07-12T07:32:09;1.20;;;1.10;;
20008;SDS011;10165;42.662;23.260;2022-07-12T07:34:36;2.00;;;1.23;;
20008;SDS011;10165;42.662;23.260;2022-07-12T07:37:03;3.20;;;1.40;;
20008;SDS011;10165;42.662;23.260;2022-07-12T07:39:30;1.63;;;1.20;;
20008;SDS011;10165;42.662;23.260;2022-07-12T07:41:57;1.60;;;1.30;;
20008;SDS011;10165;42.662;23.260;2022-07-12T07:44:24;1.93;;;1.20;;
20008;SDS011;10165;42.662;23.260;2022-07-12T07:46:58;2.30;;;1.00;;
20008;SDS011;10165;42.662;23.260;2022-07-12T07:49:26;4.73;;;1.10;;
20008;SDS011;10165;42.662;23.260;2022-07-12T07:51:53;4.77;;;1.20;;
20008;SDS011;10165;42.662;23.260;2022-07-12T07:54:20;2.37;;;1.07;;
20008;SDS011;10165;42.662;23.260;2022-07-12T07:56:47;2.93;;;1.10;;
20008;SDS011;10165;42.662;23.260;2022-07-12T07:59:13;1.00;;;0.90;;
20008;SDS011;10165;42.662;23.260;2022-07-12T08:01:40;2.13;;;1.40;;
20008;SDS011;10165;42.662;23.260;2022-07-12T08:04:19;1.17;;;1.10;;
20008;SDS011;10165;42.662;23.260;2022-07-12T08:06:47;3.27;;;1.50;;
20008;SDS011;10165;42.662;23.260;2022-07-12T08:09:14;2.20;;;1.10;;
20008;SDS011;10165;42.662;23.260;2022-07-12T08:11:42;4.27;;;1.20;;
20008;SDS011;10165;42.662;23.260;2022-07-12T08:14:09;0.90;;;0.90;;
20008;SDS011;10165;42.662;23.260;2022-07-12T08:16:36;1.77;;;1.30;;
20008;SDS011;10165;42.662;23.260;2022-07-12T08:19:04;4.50;;;1.23;;
20008;SDS011;10165;42.662;23.260;2022-07-12T08:21:33;1.33;;;1.13;;
20008;SDS011;10165;42.662;23.260;2022-07-12T08:24:02;9.40;;;1.20;;
20008;SDS011;10165;42.662;23.260;2022-07-12T08:26:29;2.13;;;1.20;;
20008;SDS011;10165;42.662;23.260;2022-07-12T08:28:55;7.80;;;1.17;;
20008;SDS011;10165;42.662;23.260;2022-07-12T08:31:22;2.87;;;1.30;;
20008;SDS011;10165;42.662;23.260;2022-07-12T08:33:49;1.40;;;1.07;;
20008;SDS011;10165;42.662;23.260;2022-07-12T08:36:17;2.10;;;1.20;;
20008;SDS011;10165;42.662;23.260;2022-07-12T08:38:44;4.60;;;1.00;;
20008;SDS011;10165;42.662;23.260;2022-07-12T08:41:11;0.90;;;0.83;;
20008;SDS011;10165;42.662;23.260;2022-07-12T08:43:40;2.63;;;0.90;;
20008;SDS011;10165;42.662;23.260;2022-07-12T08:46:08;0.90;;;0.90;;
20008;SDS011;10165;42.662;23.260;2022-07-12T08:48:36;0.97;;;0.97;;
20008;SDS011;10165;42.662;23.260;2022-07-12T08:51:05;4.67;;;1.07;;
20008;SDS011;10165;42.662;23.260;2022-07-12T08:53:33;7.47;;;1.60;;
20008;SDS011;10165;42.662;23.260;2022-07-12T08:56:01;1.57;;;1.00;;
20008;SDS011;10165;42.662;23.260;2022-07-12T08:58:29;2.23;;;1.00;;
20008;SDS011;10165;42.662;23.260;2022-07-12T09:00:55;0.97;;;0.93;;
20008;SDS011;10165;42.662;23.260;2022-07-12T09:03:22;1.10;;;1.00;;
20008;SDS011;10165;42.662;23.260;2022-07-12T09:05:53;0.77;;;0.77;;
20008;SDS011;10165;42.662;23.260;2022-07-12T09:08:26;1.70;;;1.30;;
20008;SDS011;10165;42.662;23.260;2022-07-12T09:10:55;9.27;;;1.07;;
20008;SDS011;10165;42.662;23.260;2022-07-12T09:16:19;2.73;;;1.00;;
20008;SDS011;10165;42.662;23.260;2022-07-12T09:18:51;1.23;;;0.90;;
20008;SDS011;10165;42.662;23.260;2022-07-12T09:21:37;3.87;;;1.07;;
20008;SDS011;10165;42.662;23.260;2022-07-12T09:24:11;0.80;;;0.80;;
20008;SDS011;10165;42.662;23.260;2022-07-12T09:26:38;1.10;;;1.00;;
20008;SDS011;10165;42.662;23.260;2022-07-12T09:29:06;4.47;;;1.00;;
20008;SDS011;10165;42.662;23.260;2022-07-12T09:31:40;1.07;;;0.97;;
20008;SDS011;10165;42.662;23.260;2022-07-12T09:34:28;2.73;;;1.03;;
20008;SDS011;10165;42.662;23.260;2022-07-12T09:37:14;0.90;;;0.80;;
20008;SDS011;10165;42.662;23.260;2022-07-12T09:39:41;1.30;;;0.87;;
20008;SDS011;10165;42.662;23.260;2022-07-12T09:42:09;1.13;;;0.83;;
20008;SDS011;10165;42.662;23.260;2022-07-12T09:44:38;2.37;;;1.10;;
20008;SDS011;10165;42.662;23.260;2022-07-12T09:47:07;2.00;;;0.90;;
20008;SDS011;10165;42.662;23.260;2022-07-12T09:49:39;0.80;;;0.80;;
20008;SDS011;10165;42.662;23.260;2022-07-12T09:52:10;1.57;;;0.90;;
20008;SDS011;10165;42.662;23.260;2022-07-12T09:54:49;1.10;;;1.00;;
20008;SDS011;10165;42.662;23.260;2022-07-12T09:57:25;1.80;;;1.03;;
20008;SDS011;10165;42.662;23.260;2022-07-12T09:59:55;6.00;;;1.20;;
20008;SDS011;10165;42.662;23.260;2022-07-12T10:02:23;1.53;;;0.97;;
20008;SDS011;10165;42.662;23.260;2022-07-12T10:04:52;1.43;;;1.00;;
20008;SDS011;10165;42.662;23.260;2022-07-12T10:07:19;0.73;;;0.73;;
20008;SDS011;10165;42.662;23.260;2022-07-12T10:09:52;1.30;;;1.00;;
20008;SDS011;10165;42.662;23.260;2022-07-12T10:12:23;0.90;;;0.80;;
20008;SDS011;10165;42.662;23.260;2022-07-12T10:14:59;0.80;;;0.80;;
20008;SDS011;10165;42.662;23.260;2022-07-12T10:17:29;0.80;;;0.80;;
20008;SDS011;10165;42.662;23.260;2022-07-12T10:20:16;3.73;;;1.00;;
20008;SDS011;10165;42.662;23.260;2022-07-12T10:22:45;2.40;;;0.90;;
20008;SDS011;10165;42.662;23.260;2022-07-12T10:27:52;0.60;;;0.60;;
20008;SDS011;10165;42.662;23.260;2022-07-12T10:30:20;2.00;;;1.17;;
20008;SDS011;10165;42.662;23.260;2022-07-12T10:32:49;1.57;;;1.00;;
20008;SDS011;10165;42.662;23.260;2022-07-12T10:35:23;2.57;;;1.00;;
20008;SDS011;10165;42.662;23.260;2022-07-12T10:40:40;3.17;;;0.90;;
20008;SDS011;10165;42.662;23.260;2022-07-12T10:45:39;2.73;;;1.00;;
20008;SDS011;10165;42.662;23.260;2022-07-12T10:48:08;0.70;;;0.70;;
20008;SDS011;10165;42.662;23.260;2022-07-12T10:53:31;1.13;;;0.80;;
20008;SDS011;10165;42.662;23.260;2022-07-12T10:58:32;1.40;;;0.97;;
20008;SDS011;10165;42.662;23.260;2022-07-12T11:01:03;1.77;;;0.90;;
20008;SDS011;10165;42.662;23.260;2022-07-12T11:06:12;1.17;;;1.07;;
20008;SDS011;10165;42.662;23.260;2022-07-12T11:09:00;1.00;;;1.00;;
20008;SDS011;10165;42.662;23.260;2022-07-12T11:11:31;1.63;;;1.00;;
20008;SDS011;10165;42.662;23.260;2022-07-12T11:14:01;3.60;;;1.00;;
20008;SDS011;10165;42.662;23.260;2022-07-12T11:16:29;0.97;;;0.90;;
20008;SDS011;10165;42.662;23.260;2022-07-12T11:18:57;1.57;;;1.20;;
20008;SDS011;10165;42.662;23.260;2022-07-12T11:21:24;0.83;;;0.83;;
20008;SDS011;10165;42.662;23.260;2022-07-12T11:23:51;2.33;;;1.10;;
20008;SDS011;10165;42.662;23.260;2022-07-12T11:26:18;0.97;;;0.90;;
20008;SDS011;10165;42.662;23.260;2022-07-12T11:28:46;4.50;;;1.20;;
20008;SDS011;10165;42.662;23.260;2022-07-12T11:31:17;3.57;;;1.30;;
20008;SDS011;10165;42.662;23.260;2022-07-12T11:33:46;1.97;;;0.90;;
20008;SDS011;10165;42.662;23.260;2022-07-12T11:36:14;2.00;;;1.10;;
20008;SDS011;10165;42.662;23.260;2022-07-12T11:38:43;4.93;;;1.00;;
20008;SDS011;10165;42.662;23.260;2022-07-12T11:41:12;3.63;;;1.30;;
20008;SDS011;10165;42.662;23.260;2022-07-12T11:43:40;3.80;;;1.07;;
20008;SDS011;10165;42.662;23.260;2022-07-12T11:46:08;2.77;;;1.20;;
20008;SDS011;10165;42.662;23.260;2022-07-12T11:48:36;0.73;;;0.73;;
20008;SDS011;10165;42.662;23.260;2022-07-12T11:51:04;3.10;;;1.13;;
20008;SDS011;10165;42.662;23.260;2022-07-12T11:53:33;1.97;;;0.93;;
20008;SDS011;10165;42.662;23.260;2022-07-12T11:56:02;2.87;;;1.20;;
20008;SDS011;10165;42.662;23.260;2022-07-12T11:58:30;1.50;;;1.20;;
20008;SDS011;10165;42.662;23.260;2022-07-12T12:01:04;1.57;;;1.03;;
20008;SDS011;10165;42.662;23.260;2022-07-12T12:03:45;1.27;;;1.10;;
20008;SDS011;10165;42.662;23.260;2022-07-12T12:06:13;4.67;;;1.07;;
20008;SDS011;10165;42.662;23.260;2022-07-12T12:08:43;1.30;;;1.20;;
20008;SDS011;10165;42.662;23.260;2022-07-12T12:11:12;1.97;;;1.20;;
20008;SDS011;10165;42.662;23.260;2022-07-12T12:13:39;1.37;;;1.10;;
20008;SDS011;10165;42.662;23.260;2022-07-12T12:16:06;1.47;;;1.00;;
20008;SDS011;10165;42.662;23.260;2022-07-12T12:18:34;2.07;;;1.13;;
20008;SDS011;10165;42.662;23.260;2022-07-12T12:21:05;1.43;;;1.20;;
20008;SDS011;10165;42.662;23.260;2022-07-12T12:23:38;1.00;;;1.00;;
20008;SDS011;10165;42.662;23.260;2022-07-12T12:28:41;0.83;;;0.83;;
20008;SDS011;10165;42.662;23.260;2022-07-12T12:31:12;1.20;;;1.10;;
20008;SDS011;10165;42.662;23.260;2022-07-12T12:33:45;2.70;;;1.20;;
20008;SDS011;10165;42.662;23.260;2022-07-12T12:36:17;2.30;;;1.50;;
20008;SDS011;10165;42.662;23.260;2022-07-12T12:38:45;2.20;;;1.03;;
20008;SDS011;10165;42.662;23.260;2022-07-12T12:41:13;2.53;;;1.40;;
20008;SDS011;10165;42.662;23.260;2022-07-12T12:43:40;2.87;;;1.30;;
20008;SDS011;10165;42.662;23.260;2022-07-12T12:46:08;0.93;;;0.93;;
20008;SDS011;10165;42.662;23.260;2022-07-12T12:48:36;1.30;;;1.20;;
20008;SDS011;10165;42.662;23.260;2022-07-12T12:51:11;3.87;;;1.47;;
20008;SDS011;10165;42.662;23.260;2022-07-12T12:53:40;3.20;;;1.00;;
20008;SDS011;10165;42.662;23.260;2022-07-12T12:56:11;1.90;;;1.13;;
20008;SDS011;10165;42.662;23.260;2022-07-12T12:58:40;2.47;;;1.00;;
20008;SDS011;10165;42.662;23.260;2022-07-12T13:01:08;1.40;;;1.20;;
20008;SDS011;10165;42.662;23.260;2022-07-12T13:03:35;2.33;;;1.20;;
20008;SDS011;10165;42.662;23.260;2022-07-12T13:06:05;2.77;;;1.47;;
20008;SDS011;10165;42.662;23.260;2022-07-12T13:08:32;2.27;;;1.37;;
20008;SDS011;10165;42.662;23.260;2022-07-12T13:10:59;1.90;;;1.00;;
20008;SDS011;10165;42.662;23.260;2022-07-12T13:13:48;2.73;;;1.33;;
20008;SDS011;10165;42.662;23.260;2022-07-12T13:16:14;1.77;;;1.30;;
20008;SDS011;10165;42.662;23.260;2022-07-12T13:18:41;1.50;;;1.03;;
20008;SDS011;10165;42.662;23.260;2022-07-12T13:21:09;1.07;;;1.00;;
20008;SDS011;10165;42.662;23.260;2022-07-12T13:23:36;2.03;;;1.10;;
20008;SDS011;10165;42.662;23.260;2022-07-12T13:26:04;1.90;;;1.17;;
20008;SDS011;10165;42.662;23.260;2022-07-12T13:28:35;1.00;;;0.90;;
20008;SDS011;10165;42.662;23.260;2022-07-12T13:31:02;1.87;;;1.03;;
20008;SDS011;10165;42.662;23.260;2022-07-12T13:33:30;3.77;;;1.10;;
20008;SDS011;10165;42.662;23.260;2022-07-12T13:35:57;1.13;;;1.00;;
20008;SDS011;10165;42.662;23.260;2022-07-12T13:38:27;1.10;;;1.00;;
20008;SDS011;10165;42.662;23.260;2022-07-12T13:40:54;1.60;;;1.37;;
20008;SDS011;10165;42.662;23.260;2022-07-12T13:43:20;2.70;;;1.10;;
20008;SDS011;10165;42.662;23.260;2022-07-12T13:45:49;10.33;;;1.30;;
20008;SDS011;10165;42.662;23.260;2022-07-12T13:48:17;1.27;;;1.17;;
20008;SDS011;10165;42.662;23.260;2022-07-12T13:50:45;1.43;;;1.33;;
20008;SDS011;10165;42.662;23.260;2022-07-12T13:53:33;2.47;;;1.20;;
20008;SDS011;10165;42.662;23.260;2022-07-12T13:56:00;1.00;;;1.00;;
20008;SDS011;10165;42.662;23.260;2022-07-12T13:58:26;1.17;;;1.07;;
20008;SDS011;10165;42.662;23.260;2022-07-12T14:00:53;1.30;;;1.20;;
20008;SDS011;10165;42.662;23.260;2022-07-12T14:03:21;1.27;;;1.17;;
20008;SDS011;10165;42.662;23.260;2022-07-12T14:05:48;1.27;;;1.10;;
20008;SDS011;10165;42.662;23.260;2022-07-12T14:08:15;1.00;;;1.00;;
20008;SDS011;10165;42.662;23.260;2022-07-12T14:10:42;2.90;;;1.00;;
20008;SDS011;10165;42.662;23.260;2022-07-12T14:13:09;2.43;;;1.10;;
20008;SDS011;10165;42.662;23.260;2022-07-12T14:15:36;2.20;;;1.13;;
20008;SDS011;10165;42.662;23.260;2022-07-12T14:18:04;1.60;;;1.20;;
20008;SDS011;10165;42.662;23.260;2022-07-12T14:20:33;2.00;;;0.90;;
20008;SDS011;10165;42.662;23.260;2022-07-12T14:23:01;3.13;;;1.37;;
20008;SDS011;10165;42.662;23.260;2022-07-12T14:25:29;1.10;;;1.00;;
20008;SDS011;10165;42.662;23.260;2022-07-12T14:27:56;2.80;;;1.50;;
20008;SDS011;10165;42.662;23.260;2022-07-12T14:30:23;2.10;;;1.10;;
20008;SDS011;10165;42.662;23.260;2022-07-12T14:32:50;1.40;;;1.00;;
20008;SDS011;10165;42.662;23.260;2022-07-12T14:35:19;3.60;;;1.20;;
20008;SDS011;10165;42.662;23.260;2022-07-12T14:37:45;2.80;;;1.30;;
20008;SDS011;10165;42.662;23.260;2022-07-12T14:40:12;3.17;;;1.57;;
20008;SDS011;10165;42.662;23.260;2022-07-12T14:42:39;1.00;;;0.90;;
20008;SDS011;10165;42.662;23.260;2022-07-12T14:45:07;1.27;;;0.90;;
20008;SDS011;10165;42.662;23.260;2022-07-12T14:47:34;4.30;;;1.10;;
20008;SDS011;10165;42.662;23.260;2022-07-12T14:50:00;2.20;;;1.37;;
20008;SDS011;10165;42.662;23.260;2022-07-12T14:52:31;1.90;;;1.10;;
20008;SDS011;10165;42.662;23.260;2022-07-12T14:54:58;1.00;;;0.90;;
20008;SDS011;10165;42.662;23.260;2022-07-12T14:57:25;2.10;;;1.30;;
20008;SDS011;10165;42.662;23.260;2022-07-12T14:59:52;2.83;;;1.00;;
20008;SDS011;10165;42.662;23.260;2022-07-12T15:02:20;1.47;;;1.20;;